San Francisco, CA

5:55 AM PDT en Octubre 30, 2014 (GMT -0700)
SOMA - Near Van Ness | Change Station
CLOSE
Current Station
Estación meteorológica personal
Location: San Francisco, CA
Altura: 49 ft
Estaciones meteorológicas cercanas

Alt 49 ft 37.77 °N, 122.42 °W | Updated 31 seconds ago

Parcialmente nublado
Parcialmente nublado
62.0 ° F
Sensación térmica 62.0 ° F
N
0.0
Viento Variable Viento desde SE
Gusts 0.0 mph

Hoy
Alta -- | Baja -- ° F
--% Posibilidad de precipitaciones
Ayer
Alta -- | Baja -- ° F
Precip. -- pul
7:33 AM 6:13 PM
Creciente, 43% visible
Presión 29.93 pul
Visibilidad 10.0 Millas
Nubes Despejado
Punto de rocío 55 ° F
Humedad 78%
Precipitaciones 0.00 pul
Espesor de la nieve No disponible.
UV 0 de una escala de 12
Polen 2.20 de una escala de 12
Calidad del aire No disponible.
Flu Activity No disponible.
METAR KSFO 301156Z 00000KT 10SM CLR 16/11 A2992 RMK AO2 SLP133 7//// T01560111 10194 20156 56009

More Conditions Fewer Conditions

Presión 29.93 pul
Visibilidad 10.0 Millas
Nubes Despejado
Punto de rocío 55 ° F
Humedad 78%
Precipitaciones 0.00 pul
Espesor de la nieve No disponible.
UV 0 de una escala de 12
Polen 2.20 de una escala de 12
Calidad del aire No disponible.
Flu Activity No disponible.
METAR KSFO 301156Z 00000KT 10SM CLR 16/11 A2992 RMK AO2 SLP133 7//// T01560111 10194 20156 56009

More Conditions Fewer Conditions

10-Day Weather Forecast

Almanac

Astronomía

Oct. 30, 2014 Salida Puesta
Hora real
Crepúsculo civil
Crepúsculo náutico
Crepúsculo astronómico
Luna
Horas de luz
Horas de luz
Tomorrow will be .
, % of the Moon is Illuminated

Extremos de hoy

Máximos del estado Bajos del estado

Community

WunderPhotos

Upload Photos

1,766,353 ¡fotos cargadas!

WunderBlogs® & News

Nearby

Calidad del aire

  Calidad del aire Índice AQ Contaminante
Not available.

Grosos de nieve

Estación Profundido Altura

Actividad de terremotos

Ciudad Distance Mag. Tiempo y dato
Magnitud mínima muestra es 2,5.

Temperaturas de aguas costeras

Lugar Temperatura

Estaciones meteorológicas cercanas